Terminal Aerodrome Forecast
Issued by NWS Spokane, WA

Home | Current Version | Previous Version | Text Only | Print | Product List | Glossary On
Versions: 1 2 3 4 5 6 7 8 9 10 11 12
000
FTUS46 KOTX 201120
TAFLWS
TAF
KLWS 201120Z 2012/2112 VRB03KT P6SM BKN250
     FM201900 33007KT P6SM BKN200
     FM210300 21004KT P6SM SCT250
     FM210700 16004KT P6SM SCT300=

USA.gov is the U.S. government's official web portal to all federal, state and local government web resources and services.